createdAt,value
2018-01-05T00:00:58.259Z,14.8
2018-01-05T00:10:58.421Z,15.4
2018-01-05T00:20:58.531Z,12.8
2018-01-05T00:30:59.222Z,12.7
2018-01-05T00:40:59.598Z,11.6
2018-01-05T00:50:58.806Z,12.1
2018-01-05T01:00:59.157Z,12.4
2018-01-05T01:10:59.676Z,10.6
2018-01-05T01:20:58.830Z,10.3
2018-01-05T01:30:59.462Z,10.3
2018-01-05T01:40:58.706Z,14.4
2018-01-05T01:50:58.449Z,12.4
2018-01-05T02:00:58.160Z,10.4
2018-01-05T02:10:58.980Z,8.5
2018-01-05T02:20:58.999Z,8.9
2018-01-05T02:30:59.393Z,8.2
2018-01-05T02:40:58.109Z,8.4
2018-01-05T02:51:00.256Z,8.5
2018-01-05T03:00:57.992Z,8.4
2018-01-05T03:10:59.508Z,9.0
2018-01-05T03:20:59.250Z,9.8
2018-01-05T03:30:59.982Z,8.2
2018-01-05T03:40:59.100Z,8.6
2018-01-05T03:50:59.449Z,14.8
2018-01-05T04:00:58.472Z,17.6
2018-01-05T04:10:58.353Z,10.0
2018-01-05T04:20:58.518Z,12.7
2018-01-05T04:30:58.670Z,10.9
2018-01-05T04:40:58.397Z,10.2
2018-01-05T04:50:58.898Z,9.4
2018-01-05T05:01:00.132Z,9.4
2018-01-05T05:10:59.313Z,9.7
2018-01-05T05:20:59.333Z,9.4
2018-01-05T05:30:58.950Z,10.7
2018-01-05T05:40:59.414Z,12.1
2018-01-05T05:50:58.492Z,11.4
2018-01-05T06:00:58.662Z,11.4
2018-01-05T06:10:58.804Z,10.9
2018-01-05T06:20:59.010Z,10.6
2018-01-05T06:30:58.766Z,10.5
2018-01-05T06:40:59.240Z,10.8
2018-01-05T06:50:59.321Z,10.1
2018-01-05T07:00:59.068Z,8.6
2018-01-05T07:10:58.788Z,7.5
2018-01-05T07:20:59.440Z,6.8
2018-01-05T07:30:58.879Z,7.6
2018-01-05T07:40:59.072Z,7.9
2018-01-05T07:50:58.873Z,6.1
2018-01-05T08:00:58.652Z,4.8
2018-01-05T08:10:58.646Z,4.1
2018-01-05T08:20:59.610Z,5.6
2018-01-05T08:30:58.707Z,5.4
2018-01-05T08:40:59.607Z,4.5
2018-01-05T08:50:58.337Z,4.9
2018-01-05T09:00:58.841Z,4.8
2018-01-05T09:10:58.831Z,4.9
2018-01-05T09:20:58.664Z,5.3
2018-01-05T09:30:58.863Z,5.5
2018-01-05T09:40:58.779Z,5.6
2018-01-05T09:50:59.206Z,4.4
2018-01-05T10:00:59.284Z,6.1
2018-01-05T10:10:58.753Z,5.2
2018-01-05T10:20:59.377Z,4.3
2018-01-05T10:30:59.705Z,4.6
2018-01-05T10:40:58.548Z,4.7
2018-01-05T10:50:59.119Z,4.9
2018-01-05T11:00:59.277Z,4.7
2018-01-05T11:10:59.720Z,3.9
2018-01-05T11:20:58.808Z,5.2
2018-01-05T11:30:59.914Z,4.8
2018-01-05T11:40:58.868Z,4.9
2018-01-05T11:50:59.503Z,4.1
2018-01-05T12:00:58.247Z,4.6
2018-01-05T12:10:59.165Z,4.1
2018-01-05T12:20:59.384Z,3.6
2018-01-05T12:30:58.183Z,3.9
2018-01-05T12:40:59.924Z,4.0
2018-01-05T12:50:58.757Z,4.5
2018-01-05T13:00:58.648Z,4.8
2018-01-05T13:10:58.998Z,4.9
2018-01-05T13:20:59.243Z,4.9
2018-01-05T13:31:00.374Z,6.1
2018-01-05T13:40:58.992Z,6.7
2018-01-05T13:50:58.765Z,7.1
2018-01-05T14:00:59.601Z,7.3
2018-01-05T14:10:58.351Z,6.1
2018-01-05T14:20:58.464Z,5.9
2018-01-05T14:30:58.226Z,6.0
2018-01-05T14:41:00.603Z,6.4
2018-01-05T14:50:58.832Z,7.7
2018-01-05T15:00:59.021Z,7.6
2018-01-05T15:10:58.763Z,7.8
2018-01-05T15:20:59.036Z,7.8
2018-01-05T15:30:59.488Z,8.1
2018-01-05T15:40:58.948Z,9.8
2018-01-05T15:50:58.889Z,11.2
2018-01-05T16:00:59.064Z,11.8
2018-01-05T16:10:59.051Z,11.8
2018-01-05T16:20:58.963Z,12.5
2018-01-05T16:30:59.256Z,12.5
2018-01-05T16:40:59.240Z,13.2
2018-01-05T16:50:59.221Z,14.5
2018-01-05T17:01:00.153Z,16.8
2018-01-05T17:10:59.571Z,18.5
2018-01-05T17:20:59.549Z,20.0
2018-01-05T17:30:59.215Z,19.6
2018-01-05T17:40:59.340Z,21.0
2018-01-05T17:50:58.984Z,31.3
2018-01-05T18:00:58.718Z,29.5
2018-01-05T18:10:58.703Z,37.7
2018-01-05T18:20:59.038Z,39.9
2018-01-05T18:30:58.869Z,35.4
2018-01-05T18:40:59.450Z,36.0
2018-01-05T18:50:58.864Z,35.5
2018-01-05T19:00:59.156Z,37.8
2018-01-05T19:10:58.972Z,23.6
2018-01-05T19:21:00.019Z,25.5
2018-01-05T19:31:00.106Z,23.3
2018-01-05T19:40:59.304Z,24.4
2018-01-05T19:51:00.222Z,21.9
2018-01-05T20:00:59.475Z,19.6
2018-01-05T20:10:59.244Z,24.8
2018-01-05T20:20:59.716Z,51.8
2018-01-05T20:30:58.803Z,55.8
2018-01-05T20:40:58.849Z,52.0
2018-01-05T20:50:58.895Z,48.5
2018-01-05T21:00:58.925Z,70.0
2018-01-05T21:10:59.280Z,53.5
2018-01-05T21:20:58.413Z,54.0
2018-01-05T21:30:58.867Z,61.8
2018-01-05T21:40:59.665Z,59.0
2018-01-05T21:50:59.096Z,53.5
2018-01-05T22:00:58.925Z,62.2
2018-01-05T22:10:58.689Z,63.0
2018-01-05T22:20:58.783Z,62.4
2018-01-05T22:30:58.781Z,60.2
2018-01-05T22:40:59.423Z,71.6
2018-01-05T22:50:59.304Z,74.6
2018-01-05T23:01:00.628Z,77.8
2018-01-05T23:10:59.398Z,65.0
2018-01-05T23:20:58.265Z,66.2
2018-01-05T23:30:59.756Z,63.8
2018-01-05T23:40:58.752Z,70.4
2018-01-05T23:50:58.799Z,70.8
